createdAt,value
2022-11-05T08:21:48.405Z,99.90
2022-11-05T08:31:45.424Z,99.90
2022-11-05T08:41:42.711Z,99.90
2022-11-05T08:51:40.190Z,99.90
2022-11-05T09:01:37.418Z,99.90
2022-11-05T09:12:05.335Z,99.90
2022-11-05T09:21:52.390Z,99.90
2022-11-05T09:31:49.547Z,98.80
2022-11-05T09:41:48.852Z,99.90
2022-11-05T09:51:46.041Z,99.90
2022-11-05T10:01:43.608Z,89.90
2022-11-05T10:12:00.599Z,79.30
2022-11-05T10:22:19.006Z,75.40
2022-11-05T10:32:40.024Z,59.10
2022-11-05T10:43:03.447Z,60.70
2022-11-05T10:53:08.041Z,60.10
2022-11-05T11:03:26.348Z,61.80
2022-11-05T11:13:27.946Z,73.50
2022-11-05T11:23:25.206Z,63.10
2022-11-05T11:33:24.366Z,66.90
2022-11-05T11:43:29.465Z,54.30
2022-11-05T11:53:36.033Z,59.20
2022-11-05T12:03:45.321Z,64.90
2022-11-05T12:13:48.220Z,53.30
2022-11-05T12:24:09.506Z,60.60
2022-11-05T12:34:25.130Z,51.60
2022-11-05T12:44:28.286Z,54.10
2022-11-05T12:54:34.678Z,65.10
2022-11-05T13:04:46.020Z,70.30
2022-11-05T13:14:53.716Z,59.60
2022-11-05T13:24:53.098Z,55.50
2022-11-05T13:34:51.632Z,58.20
2022-11-05T13:45:10.620Z,54.60
2022-11-05T13:55:16.723Z,59.60
2022-11-05T14:05:41.480Z,70.20
2022-11-05T14:15:38.673Z,94.10
2022-11-05T14:25:35.771Z,98.20
2022-11-05T14:35:37.478Z,89.70
2022-11-05T14:45:58.622Z,84.50
2022-11-05T14:56:18.117Z,77.50
2022-11-05T15:06:21.396Z,65.50
2022-11-05T15:16:24.476Z,59.30
2022-11-05T15:26:41.847Z,65.40
2022-11-05T15:36:39.102Z,68.50
2022-11-05T15:46:36.093Z,67.20
2022-11-05T15:56:48.152Z,71.90
2022-11-05T16:06:51.133Z,72.60
2022-11-05T16:16:48.331Z,79.40
2022-11-05T16:27:02.172Z,81.60
2022-11-05T16:37:00.220Z,79.60
2022-11-05T16:46:58.504Z,82.50
2022-11-05T16:56:55.911Z,83.30
2022-11-05T17:06:53.100Z,84.00
2022-11-05T17:16:50.086Z,80.00
2022-11-05T17:26:47.393Z,82.00
2022-11-05T17:36:44.579Z,86.30
2022-11-05T17:46:41.598Z,84.90
2022-11-05T17:56:44.670Z,84.90
2022-11-05T18:06:42.654Z,88.30
2022-11-05T18:16:39.788Z,88.30
2022-11-05T18:26:36.958Z,90.70
2022-11-05T18:36:34.219Z,87.20
2022-11-05T18:56:49.340Z,88.40
2022-11-05T19:06:46.347Z,91.00
2022-11-05T19:16:43.696Z,93.00
2022-11-05T19:26:41.697Z,92.90
2022-11-05T19:36:39.055Z,93.30
2022-11-05T19:46:36.224Z,90.30
2022-11-05T19:56:34.300Z,87.70
2022-11-05T20:06:35.335Z,87.30
